createdAt,value
2018-05-27T00:00:08.951Z,58.08
2018-05-27T00:03:32.355Z,57.81
2018-05-27T00:06:56.093Z,57.98
2018-05-27T00:10:21.286Z,59.14
2018-05-27T00:13:44.753Z,59.23
2018-05-27T00:17:08.213Z,59.67
2018-05-27T00:20:31.582Z,59.07
2018-05-27T00:23:57.266Z,59.31
2018-05-27T00:27:20.581Z,59.56
2018-05-27T00:30:45.459Z,59.55
2018-05-27T00:34:09.481Z,58.88
2018-05-27T00:37:35.017Z,59.45
2018-05-27T00:40:58.717Z,59.36
2018-05-27T00:44:25.067Z,60.26
2018-05-27T00:47:49.555Z,60.44
2018-05-27T00:51:13.133Z,60.93
2018-05-27T00:54:36.468Z,60.91
2018-05-27T00:57:59.863Z,61.62
2018-05-27T01:01:23.332Z,62.10
2018-05-27T01:04:48.895Z,62.84
2018-05-27T01:08:12.323Z,62.82
2018-05-27T01:11:35.869Z,63.97
2018-05-27T01:14:59.144Z,63.83
2018-05-27T01:18:22.625Z,63.85
2018-05-27T01:21:46.093Z,63.96
2018-05-27T01:25:09.535Z,63.68
2018-05-27T01:28:33.031Z,63.56
2018-05-27T01:31:56.475Z,63.05
2018-05-27T01:35:19.943Z,62.54
2018-05-27T01:38:43.423Z,63.65
2018-05-27T01:42:08.989Z,63.07
2018-05-27T01:45:34.535Z,63.31
2018-05-27T01:48:57.905Z,62.95
2018-05-27T01:52:21.343Z,62.85
2018-05-27T01:55:44.780Z,63.54
2018-05-27T01:59:08.363Z,63.77
2018-05-27T02:02:31.682Z,64.13
2018-05-27T02:05:55.157Z,64.87
2018-05-27T02:09:18.601Z,64.04
2018-05-27T02:12:44.175Z,63.54
2018-05-27T02:16:07.535Z,63.82
2018-05-27T02:19:31.151Z,64.19
2018-05-27T02:22:54.564Z,65.23
2018-05-27T02:26:20.072Z,63.84
2018-05-27T02:29:43.967Z,64.94
2018-05-27T02:33:09.058Z,64.37
2018-05-27T02:36:32.433Z,64.69
2018-05-27T02:39:55.914Z,64.60
2018-05-27T02:43:21.417Z,64.43
2018-05-27T02:46:44.832Z,64.70
2018-05-27T02:50:08.309Z,64.93
2018-05-27T02:53:31.731Z,64.60
2018-05-27T02:56:55.281Z,64.61
2018-05-27T03:00:22.305Z,64.69
2018-05-27T03:03:46.340Z,64.24
2018-05-27T03:07:09.804Z,65.11
2018-05-27T03:10:33.217Z,65.02
2018-05-27T03:13:58.968Z,65.92
2018-05-27T03:17:24.303Z,66.14
2018-05-27T03:20:47.805Z,67.39
2018-05-27T03:24:11.155Z,67.37
2018-05-27T03:27:34.605Z,67.27
2018-05-27T03:31:00.140Z,66.74
2018-05-27T03:34:23.636Z,66.52
2018-05-27T03:37:49.227Z,66.44
2018-05-27T03:41:12.847Z,66.78
2018-05-27T03:44:36.183Z,66.36
2018-05-27T03:47:59.639Z,66.03
2018-05-27T03:51:25.149Z,65.87
2018-05-27T03:54:50.687Z,65.95
2018-05-27T03:58:14.196Z,65.82
2018-05-27T04:01:37.677Z,66.06
2018-05-27T04:05:18.790Z,66.88
2018-05-27T04:08:43.510Z,66.11
2018-05-27T04:12:06.964Z,66.39
2018-05-27T04:15:30.381Z,64.77
2018-05-27T04:18:53.836Z,64.47
2018-05-27T04:22:17.366Z,63.70
2018-05-27T04:25:40.735Z,64.03
2018-05-27T04:29:04.158Z,63.16
2018-05-27T04:32:27.759Z,63.40
2018-05-27T04:35:51.039Z,63.18
2018-05-27T04:39:14.589Z,62.95
2018-05-27T04:42:40.126Z,62.88
2018-05-27T04:46:03.665Z,62.92
2018-05-27T04:49:27.229Z,62.21
2018-05-27T04:52:50.663Z,62.24
2018-05-27T04:56:14.149Z,61.01
2018-05-27T04:59:39.117Z,61.93
2018-05-27T05:03:03.265Z,65.56
2018-05-27T05:06:26.735Z,65.60
2018-05-27T05:09:50.268Z,66.50
2018-05-27T05:13:13.850Z,64.93
2018-05-27T05:16:37.167Z,63.72
2018-05-27T05:20:02.029Z,62.59
2018-05-27T05:23:26.157Z,62.33
2018-05-27T05:26:49.789Z,62.84
2018-05-27T05:30:15.341Z,63.01
2018-05-27T05:33:38.929Z,64.49
2018-05-27T05:37:02.855Z,65.53
2018-05-27T05:40:28.000Z,64.94
2018-05-27T05:43:51.376Z,65.01
2018-05-27T05:47:14.794Z,64.08
2018-05-27T05:50:38.319Z,62.29
2018-05-27T05:54:01.746Z,62.07
2018-05-27T05:57:25.640Z,61.47
2018-05-27T06:00:48.933Z,60.94
2018-05-27T06:04:12.514Z,60.56
2018-05-27T06:07:36.012Z,59.79
2018-05-27T06:10:59.392Z,59.05
2018-05-27T06:14:22.874Z,56.60
2018-05-27T06:17:46.300Z,57.11
2018-05-27T06:21:09.716Z,57.23
2018-05-27T06:24:33.189Z,55.77
2018-05-27T06:27:56.763Z,54.28
2018-05-27T06:31:20.186Z,54.03
2018-05-27T06:34:43.573Z,57.77
2018-05-27T06:38:09.285Z,58.25
2018-05-27T06:41:32.747Z,58.29
2018-05-27T06:44:56.085Z,59.30
2018-05-27T06:48:21.596Z,59.14
2018-05-27T06:51:45.046Z,58.82
2018-05-27T06:55:08.496Z,58.88
2018-05-27T06:58:32.048Z,58.54
2018-05-27T07:01:55.461Z,58.42
2018-05-27T07:05:18.896Z,58.57
2018-05-27T07:08:42.322Z,58.16
2018-05-27T07:12:05.773Z,56.51
2018-05-27T07:15:29.345Z,55.74
2018-05-27T07:18:52.882Z,55.68
2018-05-27T07:22:16.400Z,55.15
2018-05-27T07:25:39.854Z,54.85
2018-05-27T07:29:03.615Z,54.92
2018-05-27T07:32:27.336Z,55.52
2018-05-27T07:35:50.737Z,55.03
2018-05-27T07:39:14.169Z,53.63
2018-05-27T07:42:39.768Z,52.53
2018-05-27T07:46:03.312Z,53.84
2018-05-27T07:49:26.709Z,52.21
2018-05-27T07:52:50.067Z,51.43
2018-05-27T07:56:13.561Z,50.59
2018-05-27T07:59:36.901Z,49.60
2018-05-27T08:03:01.863Z,47.14
2018-05-27T08:06:25.891Z,47.94
2018-05-27T08:09:49.287Z,47.63
2018-05-27T08:13:13.780Z,48.04
2018-05-27T08:16:38.291Z,48.16
2018-05-27T08:20:01.879Z,47.60
2018-05-27T08:23:25.120Z,49.01
2018-05-27T08:26:48.531Z,49.13
2018-05-27T08:30:12.228Z,49.47
2018-05-27T08:33:37.481Z,49.72
2018-05-27T08:37:02.435Z,50.01
2018-05-27T08:40:26.502Z,49.77
2018-05-27T08:43:49.910Z,49.56
2018-05-27T08:47:13.305Z,48.20
2018-05-27T08:50:36.733Z,48.48
2018-05-27T08:54:02.266Z,46.86
2018-05-27T08:57:25.784Z,45.93
2018-05-27T09:00:51.258Z,45.86
2018-05-27T09:04:14.904Z,45.91
2018-05-27T09:07:40.253Z,46.03
2018-05-27T09:11:05.105Z,45.18
2018-05-27T09:14:29.227Z,45.07
2018-05-27T09:17:52.622Z,45.04
2018-05-27T09:21:16.119Z,44.27
2018-05-27T09:24:39.553Z,42.82
2018-05-27T09:28:02.955Z,42.14
2018-05-27T09:31:32.616Z,43.92
2018-05-27T09:34:56.089Z,43.47
2018-05-27T09:38:19.557Z,44.02
2018-05-27T09:41:45.158Z,42.80
2018-05-27T09:45:10.759Z,44.85
2018-05-27T09:48:34.173Z,43.74
2018-05-27T09:52:01.841Z,42.93
2018-05-27T09:55:27.375Z,43.62
2018-05-27T09:58:50.812Z,43.20
2018-05-27T10:02:16.361Z,42.11
2018-05-27T10:05:39.774Z,41.42
2018-05-27T10:09:03.251Z,41.83
2018-05-27T10:12:26.690Z,41.93
2018-05-27T10:15:50.101Z,42.77
2018-05-27T10:19:13.579Z,40.38
2018-05-27T10:22:37.011Z,41.67
2018-05-27T10:26:02.736Z,43.10
2018-05-27T10:29:26.231Z,42.53
2018-05-27T10:32:49.877Z,42.16
2018-05-27T10:36:15.243Z,41.54
2018-05-27T10:39:38.767Z,42.04
2018-05-27T10:43:04.315Z,41.78
2018-05-27T10:46:27.791Z,40.75
2018-05-27T10:49:53.281Z,40.42
2018-05-27T10:53:18.851Z,40.93
2018-05-27T10:56:42.370Z,40.08
2018-05-27T11:00:05.806Z,39.26
2018-05-27T11:03:29.387Z,40.14
2018-05-27T11:06:52.849Z,42.16
2018-05-27T11:10:16.201Z,41.63
2018-05-27T11:13:39.707Z,42.92
2018-05-27T11:17:03.132Z,42.56
2018-05-27T11:20:28.657Z,41.60
2018-05-27T11:23:52.569Z,40.82
2018-05-27T11:27:17.642Z,40.56
2018-05-27T11:30:43.017Z,40.46
2018-05-27T11:34:07.173Z,40.74
2018-05-27T11:37:30.589Z,42.17
2018-05-27T11:40:54.060Z,41.88
2018-05-27T11:44:19.677Z,41.96
2018-05-27T11:47:43.649Z,41.02
2018-05-27T11:51:08.749Z,39.58
2018-05-27T11:54:32.202Z,38.70
2018-05-27T11:57:55.697Z,38.92
2018-05-27T12:01:19.093Z,39.04
2018-05-27T12:04:42.538Z,37.11
2018-05-27T12:08:08.121Z,36.57
2018-05-27T12:11:31.729Z,38.30
2018-05-27T12:14:55.397Z,38.33
2018-05-27T12:18:19.093Z,39.53
2018-05-27T12:21:42.463Z,39.13
2018-05-27T12:25:05.929Z,36.06
2018-05-27T12:28:29.685Z,36.19
2018-05-27T12:31:53.293Z,36.11
2018-05-27T12:35:16.847Z,36.13
2018-05-27T12:38:40.399Z,37.98
2018-05-27T12:42:03.931Z,37.67
2018-05-27T12:45:27.603Z,38.73
2018-05-27T12:48:52.968Z,37.74
2018-05-27T12:52:16.485Z,38.45
2018-05-27T12:55:39.995Z,36.42
2018-05-27T12:59:03.547Z,36.14
2018-05-27T13:02:27.689Z,35.60
2018-05-27T13:05:52.185Z,36.33
2018-05-27T13:09:16.305Z,36.66
2018-05-27T13:12:41.744Z,36.42
2018-05-27T13:16:05.060Z,38.55
2018-05-27T13:19:28.568Z,39.33
2018-05-27T13:22:51.995Z,39.62
2018-05-27T13:26:15.407Z,39.03
2018-05-27T13:29:39.092Z,39.81
2018-05-27T13:33:04.483Z,38.19
2018-05-27T13:36:28.100Z,38.41
2018-05-27T13:39:51.770Z,39.21
2018-05-27T13:43:17.527Z,39.61
2018-05-27T13:46:42.631Z,36.31
2018-05-27T13:50:06.059Z,36.65
2018-05-27T13:53:29.618Z,36.58
2018-05-27T13:56:53.035Z,37.35
2018-05-27T14:00:16.978Z,37.86
2018-05-27T14:03:42.172Z,36.83
2018-05-27T14:07:05.726Z,37.30
2018-05-27T14:10:29.196Z,36.05
2018-05-27T14:13:52.532Z,37.08
2018-05-27T14:17:16.006Z,36.87
2018-05-27T14:20:40.865Z,36.44
2018-05-27T14:24:05.130Z,36.09
2018-05-27T14:27:30.685Z,35.71
2018-05-27T14:30:54.230Z,34.94
2018-05-27T14:34:17.960Z,34.68
2018-05-27T14:37:43.195Z,34.72
2018-05-27T14:41:06.658Z,34.82
2018-05-27T14:44:33.009Z,35.90
2018-05-27T14:47:57.847Z,36.52
2018-05-27T14:51:23.373Z,34.86
2018-05-27T14:54:46.749Z,34.94
2018-05-27T14:58:10.556Z,34.94
2018-05-27T15:01:34.077Z,38.08
2018-05-27T15:04:57.931Z,36.63
2018-05-27T15:08:23.000Z,35.98
2018-05-27T15:11:46.448Z,35.89
2018-05-27T15:15:09.911Z,37.19
2018-05-27T15:18:33.310Z,34.83
2018-05-27T15:21:58.837Z,33.78
2018-05-27T15:25:22.300Z,32.95
2018-05-27T15:28:45.755Z,34.50
2018-05-27T15:32:09.448Z,34.43
2018-05-27T15:35:34.218Z,33.82
2018-05-27T15:38:58.351Z,32.16
2018-05-27T15:42:22.068Z,31.17
2018-05-27T15:45:45.818Z,30.47
2018-05-27T15:49:09.580Z,31.49
2018-05-27T15:52:33.502Z,32.21
2018-05-27T15:55:57.186Z,31.31
2018-05-27T15:59:20.859Z,30.72
2018-05-27T16:02:47.892Z,30.71
2018-05-27T16:06:14.353Z,28.75
2018-05-27T16:09:38.016Z,28.62
2018-05-27T16:13:01.343Z,29.19
2018-05-27T16:16:24.761Z,31.13
2018-05-27T16:19:48.249Z,30.98
2018-05-27T16:23:11.779Z,31.90
2018-05-27T16:26:35.292Z,32.19
2018-05-27T16:29:58.748Z,31.41
2018-05-27T16:33:25.803Z,32.51
2018-05-27T16:36:50.412Z,32.82
2018-05-27T16:40:15.678Z,32.89
2018-05-27T16:43:39.135Z,33.41
2018-05-27T16:47:04.721Z,34.20
2018-05-27T16:50:29.658Z,35.13
2018-05-27T16:53:53.781Z,34.70
2018-05-27T16:57:19.302Z,35.33
2018-05-27T17:00:42.764Z,34.65
2018-05-27T17:04:06.233Z,34.92
2018-05-27T17:07:29.677Z,35.26
2018-05-27T17:10:55.285Z,35.53
2018-05-27T17:14:30.274Z,36.79
2018-05-27T17:17:56.620Z,36.32
2018-05-27T17:21:20.935Z,35.43
2018-05-27T17:24:48.145Z,36.06
2018-05-27T17:28:12.473Z,36.49
2018-05-27T17:31:36.047Z,37.78
2018-05-27T17:35:00.338Z,37.46
2018-05-27T17:38:25.180Z,38.65
2018-05-27T17:41:50.054Z,38.31
2018-05-27T17:45:14.206Z,37.84
2018-05-27T17:48:38.752Z,38.80
2018-05-27T17:52:05.821Z,39.14
2018-05-27T17:55:31.357Z,39.13
2018-05-27T17:58:59.309Z,39.77
2018-05-27T18:02:24.819Z,40.70
2018-05-27T18:05:52.955Z,40.94
2018-05-27T18:09:18.328Z,41.74
2018-05-27T18:12:43.684Z,40.89
2018-05-27T18:16:14.021Z,40.67
2018-05-27T18:19:39.362Z,40.35
2018-05-27T18:23:02.867Z,39.82
2018-05-27T18:26:28.472Z,40.81
2018-05-27T18:29:51.996Z,41.54
2018-05-27T18:33:15.744Z,41.39
2018-05-27T18:36:39.039Z,41.87
2018-05-27T18:40:02.550Z,42.71
2018-05-27T18:43:25.873Z,42.92
2018-05-27T18:46:51.423Z,44.26
2018-05-27T18:50:14.855Z,44.84
2018-05-27T18:53:38.462Z,45.10
2018-05-27T18:57:03.861Z,45.08
2018-05-27T19:00:27.325Z,45.56
2018-05-27T19:03:50.776Z,46.42
2018-05-27T19:07:16.312Z,46.26
2018-05-27T19:10:42.688Z,46.31
2018-05-27T19:14:07.719Z,46.05
2018-05-27T19:17:31.061Z,46.04
2018-05-27T19:20:54.859Z,46.09
2018-05-27T19:24:20.263Z,46.34
2018-05-27T19:27:45.607Z,46.56
2018-05-27T19:31:09.066Z,46.13
2018-05-27T19:34:32.568Z,46.57
2018-05-27T19:37:56.029Z,46.57
2018-05-27T19:41:19.990Z,46.93
2018-05-27T19:44:43.856Z,46.92
2018-05-27T19:48:07.640Z,46.92
2018-05-27T19:51:31.032Z,47.23
2018-05-27T19:54:54.697Z,47.43
2018-05-27T19:58:18.210Z,47.34
2018-05-27T20:01:41.711Z,47.52
2018-05-27T20:05:05.566Z,47.21
2018-05-27T20:08:30.845Z,48.16
2018-05-27T20:11:56.558Z,48.26
2018-05-27T20:15:20.037Z,48.69
2018-05-27T20:18:45.281Z,48.82
2018-05-27T20:22:10.215Z,49.08
2018-05-27T20:25:33.551Z,49.44
2018-05-27T20:28:59.307Z,49.72
2018-05-27T20:32:25.584Z,49.93
2018-05-27T20:35:50.794Z,50.80
2018-05-27T20:39:17.059Z,51.21
2018-05-27T20:42:40.688Z,51.40
2018-05-27T20:46:06.287Z,52.01
2018-05-27T20:49:29.704Z,51.36
2018-05-27T20:52:53.244Z,52.36
2018-05-27T20:56:16.718Z,52.29
2018-05-27T20:59:40.152Z,53.22
2018-05-27T21:03:03.557Z,53.17
2018-05-27T21:06:27.015Z,53.71
2018-05-27T21:09:50.492Z,52.81
2018-05-27T21:13:14.407Z,53.71
2018-05-27T21:16:39.451Z,53.69
2018-05-27T21:20:05.044Z,54.12
2018-05-27T21:23:28.484Z,54.54
2018-05-27T21:26:51.918Z,54.73
2018-05-27T21:30:15.402Z,54.84
2018-05-27T21:33:38.901Z,54.99
2018-05-27T21:37:02.438Z,55.60
2018-05-27T21:40:28.135Z,55.66
2018-05-27T21:43:51.620Z,55.78
2018-05-27T21:47:14.972Z,56.38
2018-05-27T21:50:38.437Z,57.43
2018-05-27T21:54:02.657Z,56.80
2018-05-27T21:57:27.471Z,56.67
2018-05-27T22:00:52.812Z,56.40
2018-05-27T22:04:16.214Z,56.80
2018-05-27T22:07:41.775Z,56.87
2018-05-27T22:11:05.422Z,57.01
2018-05-27T22:14:28.866Z,56.99
2018-05-27T22:17:52.186Z,56.87
2018-05-27T22:21:15.656Z,57.69
2018-05-27T22:24:39.300Z,57.87
2018-05-27T22:28:04.653Z,56.46
2018-05-27T22:31:28.153Z,56.09
2018-05-27T22:34:53.505Z,55.99
2018-05-27T22:38:16.953Z,55.63
2018-05-27T22:41:42.539Z,55.46
2018-05-27T22:45:07.316Z,56.00
2018-05-27T22:48:31.779Z,56.22
2018-05-27T22:51:56.552Z,56.33
2018-05-27T22:55:20.562Z,56.66
2018-05-27T22:58:45.418Z,56.68
2018-05-27T23:02:10.447Z,56.76
2018-05-27T23:05:33.781Z,56.97
2018-05-27T23:08:57.926Z,57.07
2018-05-27T23:12:21.696Z,56.34
2018-05-27T23:15:45.114Z,56.10
2018-05-27T23:19:08.542Z,56.11
2018-05-27T23:22:31.986Z,56.08
2018-05-27T23:25:55.700Z,55.86
2018-05-27T23:29:19.310Z,56.93
2018-05-27T23:32:44.231Z,57.55
2018-05-27T23:36:08.321Z,58.42
2018-05-27T23:39:31.751Z,58.39
2018-05-27T23:42:56.640Z,61.16
2018-05-27T23:46:20.746Z,61.22
2018-05-27T23:49:44.952Z,61.81
2018-05-27T23:53:09.733Z,61.61
2018-05-27T23:56:33.122Z,62.53
2018-05-27T23:59:56.793Z,62.81
